Decoded Metar for SARI (IGUAZU FALLS in ARGENTINA) (IATA:IGR) | Meteo·Mobile Aviation Weather
aviador You're here:

SARI Decoded Metar

IGUAZU FALLS in ARGENTINA
Report Time2019-07-15 23:00:00
UTC Time2019-07-15 23:57:07
Flight Rules vfr VFR
Wind180° at 05 kt
W.Decomp.*RWY 13: 2.1 kt HW 4.5 kt RCW
Visibility9999 m
Phenomena:N/A
Clouds:N/A
Expected CloudBase > 400 ft AGL from Temp-Dew spread
CeilingNone
Temp16°C (ISA +3)
Dew Point15°C (94% RH)
AAT15.8°C
QNH1019 hPa
Density Alt1,240 ft
Elevation886 ft
Report Wrong Elevation
Raw Report
SARI 152300Z 18005KT CAVOK 16/15 Q1019=

Extra information for SARI:More info

Metar Taf Metar & Taf Last 4 Metars F.Rules Stats Wind Profile Meteogram Temp Stats Airport Information Weather charts Add Link Nearby VenuesMetar ALERT Operation Metar Decoded Social comments